sensor_id;sensor_type;location;lat;lon;timestamp;pressure;altitude;pressure_sealevel;temperature;humidity
25130;BME280;13308;50.860;13.664;2023-04-19T04:23:41;97343.63;;;6.15;100.00
25130;BME280;13308;50.860;13.664;2023-04-19T04:26:12;97347.53;;;6.14;100.00
25130;BME280;13308;50.860;13.664;2023-04-19T04:29:01;97355.34;;;6.15;100.00
25130;BME280;13308;50.860;13.664;2023-04-19T04:31:28;97356.94;;;6.16;100.00
25130;BME280;13308;50.860;13.664;2023-04-19T04:33:54;97346.75;;;6.17;100.00
25130;BME280;13308;50.860;13.664;2023-04-19T04:36:20;97352.22;;;6.13;100.00
25130;BME280;13308;50.860;13.664;2023-04-19T04:38:47;97355.00;;;6.20;100.00
25130;BME280;13308;50.860;13.664;2023-04-19T04:41:12;97352.25;;;6.17;100.00
25130;BME280;13308;50.860;13.664;2023-04-19T04:43:38;97348.25;;;6.11;100.00
25130;BME280;13308;50.860;13.664;2023-04-19T04:46:04;97350.59;;;6.09;100.00
25130;BME280;13308;50.860;13.664;2023-04-19T04:48:34;97350.59;;;6.09;100.00
25130;BME280;13308;50.860;13.664;2023-04-19T04:50:59;97347.44;;;6.07;100.00
25130;BME280;13308;50.860;13.664;2023-04-19T04:53:27;97344.28;;;6.05;100.00
25130;BME280;13308;50.860;13.664;2023-04-19T04:55:55;97341.13;;;5.99;100.00
25130;BME280;13308;50.860;13.664;2023-04-19T04:58:21;97343.13;;;6.06;100.00
25130;BME280;13308;50.860;13.664;2023-04-19T05:00:57;97339.97;;;6.00;100.00
25130;BME280;13308;50.860;13.664;2023-04-19T05:03:24;97333.31;;;6.01;100.00
25130;BME280;13308;50.860;13.664;2023-04-19T05:05:55;97344.97;;;5.95;100.00
25130;BME280;13308;50.860;13.664;2023-04-19T05:08:25;97336.34;;;5.93;100.00
25130;BME280;13308;50.860;13.664;2023-04-19T05:10:55;97340.25;;;5.92;100.00
25130;BME280;13308;50.860;13.664;2023-04-19T05:13:23;97346.56;;;5.96;100.00
25130;BME280;13308;50.860;13.664;2023-04-19T05:15:49;97336.72;;;5.91;100.00
25130;BME280;13308;50.860;13.664;2023-04-19T05:18:14;97343.72;;;5.89;100.00
25130;BME280;13308;50.860;13.664;2023-04-19T05:20:40;97341.00;;;5.89;100.00
25130;BME280;13308;50.860;13.664;2023-04-19T05:23:20;97336.94;;;5.79;100.00
25130;BME280;13308;50.860;13.664;2023-04-19T05:25:46;97336.50;;;5.74;100.00
25130;BME280;13308;50.860;13.664;2023-04-19T05:28:12;97329.00;;;5.67;100.00
25130;BME280;13308;50.860;13.664;2023-04-19T05:30:51;97330.63;;;5.72;100.00
25130;BME280;13308;50.860;13.664;2023-04-19T05:33:16;97325.06;;;5.65;100.00
25130;BME280;13308;50.860;13.664;2023-04-19T05:35:41;97323.50;;;5.64;100.00
25130;BME280;13308;50.860;13.664;2023-04-19T05:38:07;97320.00;;;5.67;100.00
25130;BME280;13308;50.860;13.664;2023-04-19T05:40:33;97317.66;;;5.65;100.00
25130;BME280;13308;50.860;13.664;2023-04-19T05:42:59;97338.00;;;5.68;100.00
25130;BME280;13308;50.860;13.664;2023-04-19T05:45:25;97339.16;;;5.67;100.00
25130;BME280;13308;50.860;13.664;2023-04-19T05:47:50;97330.97;;;5.67;100.00
25130;BME280;13308;50.860;13.664;2023-04-19T05:50:38;97341.84;;;5.60;100.00
25130;BME280;13308;50.860;13.664;2023-04-19T05:53:24;97335.97;;;5.61;100.00
25130;BME280;13308;50.860;13.664;2023-04-19T05:55:51;97341.88;;;5.63;100.00
25130;BME280;13308;50.860;13.664;2023-04-19T05:58:17;97345.28;;;5.57;100.00
25130;BME280;13308;50.860;13.664;2023-04-19T06:00:43;97341.84;;;5.60;100.00
25130;BME280;13308;50.860;13.664;2023-04-19T06:03:11;97346.88;;;5.58;100.00
25130;BME280;13308;50.860;13.664;2023-04-19T06:05:37;97344.56;;;5.60;100.00
25130;BME280;13308;50.860;13.664;2023-04-19T06:08:02;97346.69;;;6.10;100.00
25130;BME280;13308;50.860;13.664;2023-04-19T06:10:29;97345.34;;;6.33;100.00
25130;BME280;13308;50.860;13.664;2023-04-19T06:12:54;97338.31;;;6.36;100.00
25130;BME280;13308;50.860;13.664;2023-04-19T06:15:19;97347.06;;;6.48;100.00
25130;BME280;13308;50.860;13.664;2023-04-19T06:17:45;97340.69;;;6.37;100.00
25130;BME280;13308;50.860;13.664;2023-04-19T06:20:11;97337.31;;;6.11;100.00
25130;BME280;13308;50.860;13.664;2023-04-19T06:22:45;97337.31;;;6.11;100.00
25130;BME280;13308;50.860;13.664;2023-04-19T06:25:11;97336.59;;;6.17;100.00
25130;BME280;13308;50.860;13.664;2023-04-19T06:27:36;97340.53;;;6.20;100.00
25130;BME280;13308;50.860;13.664;2023-04-19T06:30:02;97343.66;;;6.18;100.00
25130;BME280;13308;50.860;13.664;2023-04-19T06:32:27;97339.84;;;6.30;100.00
25130;BME280;13308;50.860;13.664;2023-04-19T06:34:52;97349.25;;;6.32;100.00
25130;BME280;13308;50.860;13.664;2023-04-19T06:37:18;97341.31;;;6.20;100.00
25130;BME280;13308;50.860;13.664;2023-04-19T06:39:43;97337.06;;;6.26;100.00
25130;BME280;13308;50.860;13.664;2023-04-19T06:42:08;97344.50;;;6.26;100.00
25130;BME280;13308;50.860;13.664;2023-04-19T06:44:34;97334.69;;;6.25;100.00
25130;BME280;13308;50.860;13.664;2023-04-19T06:46:59;97333.56;;;6.26;100.00
25130;BME280;13308;50.860;13.664;2023-04-19T06:49:25;97331.22;;;6.28;100.00
25130;BME280;13308;50.860;13.664;2023-04-19T06:51:50;97322.56;;;6.22;100.00
25130;BME280;13308;50.860;13.664;2023-04-19T06:54:15;97313.91;;;6.17;100.00
25130;BME280;13308;50.860;13.664;2023-04-19T06:56:43;97311.25;;;6.27;100.00
25130;BME280;13308;50.860;13.664;2023-04-19T06:59:17;97314.16;;;6.45;100.00
25130;BME280;13308;50.860;13.664;2023-04-19T07:01:44;97311.19;;;6.67;100.00
25130;BME280;13308;50.860;13.664;2023-04-19T07:04:09;97325.41;;;6.83;100.00
25130;BME280;13308;50.860;13.664;2023-04-19T07:06:35;97316.84;;;6.92;100.00
25130;BME280;13308;50.860;13.664;2023-04-19T07:09:02;97315.38;;;7.08;100.00
25130;BME280;13308;50.860;13.664;2023-04-19T07:11:28;97310.63;;;7.02;100.00
25130;BME280;13308;50.860;13.664;2023-04-19T07:13:53;97314.56;;;7.08;100.00
25130;BME280;13308;50.860;13.664;2023-04-19T07:16:19;97322.03;;;7.11;100.00
25130;BME280;13308;50.860;13.664;2023-04-19T07:18:44;97320.88;;;7.12;100.00
25130;BME280;13308;50.860;13.664;2023-04-19T07:21:09;97318.78;;;7.63;100.00
25130;BME280;13308;50.860;13.664;2023-04-19T07:23:35;97322.13;;;8.66;97.92
25130;BME280;13308;50.860;13.664;2023-04-19T07:26:00;97329.59;;;9.93;87.49
25130;BME280;13308;50.860;13.664;2023-04-19T07:28:27;97328.91;;;10.51;78.78
25130;BME280;13308;50.860;13.664;2023-04-19T07:30:53;97331.59;;;11.42;74.31
25130;BME280;13308;50.860;13.664;2023-04-19T07:33:18;97329.41;;;11.97;67.38
25130;BME280;13308;50.860;13.664;2023-04-19T07:35:43;97326.25;;;11.95;64.01
25130;BME280;13308;50.860;13.664;2023-04-19T07:38:09;97332.97;;;11.94;60.48
25130;BME280;13308;50.860;13.664;2023-04-19T07:40:34;97327.78;;;12.79;60.81
25130;BME280;13308;50.860;13.664;2023-04-19T07:42:59;97328.25;;;13.43;58.75
25130;BME280;13308;50.860;13.664;2023-04-19T07:45:25;97336.50;;;13.47;60.01
25130;BME280;13308;50.860;13.664;2023-04-19T07:47:50;97328.41;;;13.56;58.83
25130;BME280;13308;50.860;13.664;2023-04-19T07:50:16;97324.94;;;13.71;56.27
25130;BME280;13308;50.860;13.664;2023-04-19T07:52:41;97312.50;;;13.79;55.44
25130;BME280;13308;50.860;13.664;2023-04-19T07:55:07;97316.22;;;14.08;54.61
25130;BME280;13308;50.860;13.664;2023-04-19T07:57:33;97309.06;;;14.11;55.76
25130;BME280;13308;50.860;13.664;2023-04-19T07:59:59;97322.75;;;14.37;53.17
25130;BME280;13308;50.860;13.664;2023-04-19T08:02:26;97315.44;;;14.27;54.46
25130;BME280;13308;50.860;13.664;2023-04-19T08:04:52;97313.06;;;14.61;54.70
25130;BME280;13308;50.860;13.664;2023-04-19T08:07:17;97318.50;;;14.49;54.80
25130;BME280;13308;50.860;13.664;2023-04-19T08:09:42;97312.69;;;14.08;53.12
25130;BME280;13308;50.860;13.664;2023-04-19T08:12:08;97305.56;;;12.60;57.08
25130;BME280;13308;50.860;13.664;2023-04-19T08:14:33;97296.78;;;12.65;56.76
25130;BME280;13308;50.860;13.664;2023-04-19T08:16:58;97294.88;;;12.85;57.06
25130;BME280;13308;50.860;13.664;2023-04-19T08:19:24;97301.91;;;12.89;57.56
25130;BME280;13308;50.860;13.664;2023-04-19T08:21:49;97300.66;;;13.17;58.15
25130;BME280;13308;50.860;13.664;2023-04-19T08:24:14;97291.13;;;12.72;56.83
25130;BME280;13308;50.860;13.664;2023-04-19T08:26:40;97298.22;;;12.23;60.55
25130;BME280;13308;50.860;13.664;2023-04-19T08:29:06;97297.13;;;12.44;58.25
25130;BME280;13308;50.860;13.664;2023-04-19T08:31:31;97290.53;;;12.34;55.88
25130;BME280;13308;50.860;13.664;2023-04-19T08:33:57;97288.47;;;12.15;57.98
25130;BME280;13308;50.860;13.664;2023-04-19T08:36:24;97284.03;;;12.21;58.23
25130;BME280;13308;50.860;13.664;2023-04-19T08:38:50;97291.56;;;11.91;61.04
25130;BME280;13308;50.860;13.664;2023-04-19T08:41:17;97273.09;;;12.37;58.64
25130;BME280;13308;50.860;13.664;2023-04-19T08:43:43;97273.91;;;12.11;58.29
25130;BME280;13308;50.860;13.664;2023-04-19T08:46:10;97273.47;;;11.86;59.75
25130;BME280;13308;50.860;13.664;2023-04-19T08:48:36;97267.28;;;11.75;59.80
25130;BME280;13308;50.860;13.664;2023-04-19T08:51:01;97268.25;;;12.18;59.37
25130;BME280;13308;50.860;13.664;2023-04-19T08:53:27;97264.34;;;12.16;59.48
25130;BME280;13308;50.860;13.664;2023-04-19T08:55:53;97265.97;;;12.13;59.31
25130;BME280;13308;50.860;13.664;2023-04-19T08:58:23;97255.91;;;12.49;59.25
25130;BME280;13308;50.860;13.664;2023-04-19T09:00:48;97252.13;;;12.40;60.55
25130;BME280;13308;50.860;13.664;2023-04-19T09:03:14;97259.81;;;12.52;59.56
25130;BME280;13308;50.860;13.664;2023-04-19T09:05:39;97245.09;;;12.35;58.66
25130;BME280;13308;50.860;13.664;2023-04-19T09:08:26;97242.56;;;12.44;59.11
25130;BME280;13308;50.860;13.664;2023-04-19T09:10:59;97253.88;;;12.76;60.23
25130;BME280;13308;50.860;13.664;2023-04-19T09:13:25;97247.66;;;12.92;61.39
25130;BME280;13308;50.860;13.664;2023-04-19T09:15:51;97250.22;;;12.60;58.75
25130;BME280;13308;50.860;13.664;2023-04-19T09:18:18;97253.72;;;12.37;59.46
25130;BME280;13308;50.860;13.664;2023-04-19T09:20:45;97248.09;;;12.44;61.20
25130;BME280;13308;50.860;13.664;2023-04-19T09:23:19;97246.78;;;12.52;63.75
25130;BME280;13308;50.860;13.664;2023-04-19T09:25:56;97240.78;;;12.57;64.87
25130;BME280;13308;50.860;13.664;2023-04-19T09:28:22;97244.78;;;12.03;61.72
25130;BME280;13308;50.860;13.664;2023-04-19T09:30:48;97235.47;;;11.30;61.70
25130;BME280;13308;50.860;13.664;2023-04-19T09:33:30;97230.19;;;11.09;66.21
25130;BME280;13308;50.860;13.664;2023-04-19T09:35:57;97233.56;;;11.57;66.90
25130;BME280;13308;50.860;13.664;2023-04-19T09:38:23;97232.34;;;11.28;67.24
25130;BME280;13308;50.860;13.664;2023-04-19T09:40:48;97235.22;;;10.84;67.34
25130;BME280;13308;50.860;13.664;2023-04-19T09:43:22;97225.97;;;10.61;66.40
25130;BME280;13308;50.860;13.664;2023-04-19T09:45:49;97223.75;;;10.45;71.86
25130;BME280;13308;50.860;13.664;2023-04-19T09:48:15;97219.59;;;10.67;72.69
25130;BME280;13308;50.860;13.664;2023-04-19T09:50:56;97221.88;;;10.76;69.93
25130;BME280;13308;50.860;13.664;2023-04-19T09:53:23;97218.94;;;10.56;70.26
25130;BME280;13308;50.860;13.664;2023-04-19T09:55:49;97214.91;;;10.64;68.83
25130;BME280;13308;50.860;13.664;2023-04-19T09:58:15;97215.66;;;10.68;70.86
25130;BME280;13308;50.860;13.664;2023-04-19T10:00:42;97217.97;;;10.73;69.91
25130;BME280;13308;50.860;13.664;2023-04-19T10:03:09;97222.22;;;10.81;68.63
25130;BME280;13308;50.860;13.664;2023-04-19T10:05:38;97208.56;;;10.67;69.63
25130;BME280;13308;50.860;13.664;2023-04-19T10:08:07;97204.16;;;10.36;72.77
25130;BME280;13308;50.860;13.664;2023-04-19T10:10:33;97206.66;;;10.17;69.47
25130;BME280;13308;50.860;13.664;2023-04-19T10:13:01;97203.69;;;9.90;71.79
25130;BME280;13308;50.860;13.664;2023-04-19T10:15:28;97207.50;;;10.10;73.24
25130;BME280;13308;50.860;13.664;2023-04-19T10:17:54;97202.53;;;9.88;68.69
25130;BME280;13308;50.860;13.664;2023-04-19T10:20:23;97194.00;;;9.68;76.36
25130;BME280;13308;50.860;13.664;2023-04-19T10:22:51;97196.34;;;9.70;74.53
25130;BME280;13308;50.860;13.664;2023-04-19T10:25:17;97198.09;;;10.04;76.06
25130;BME280;13308;50.860;13.664;2023-04-19T10:27:43;97191.53;;;10.76;70.34
25130;BME280;13308;50.860;13.664;2023-04-19T10:30:20;97189.66;;;11.03;68.26
25130;BME280;13308;50.860;13.664;2023-04-19T10:32:54;97186.78;;;10.76;70.61
25130;BME280;13308;50.860;13.664;2023-04-19T10:35:34;97191.84;;;10.44;71.61
25130;BME280;13308;50.860;13.664;2023-04-19T10:40:56;97192.59;;;10.04;72.58
25130;BME280;13308;50.860;13.664;2023-04-19T10:43:31;97181.47;;;10.18;72.06
25130;BME280;13308;50.860;13.664;2023-04-19T10:46:05;97172.63;;;10.37;71.65
25130;BME280;13308;50.860;13.664;2023-04-19T10:48:32;97170.44;;;10.18;71.26
25130;BME280;13308;50.860;13.664;2023-04-19T10:51:04;97168.56;;;10.01;72.78
25130;BME280;13308;50.860;13.664;2023-04-19T10:54:32;97162.41;;;9.87;74.54
25130;BME280;13308;50.860;13.664;2023-04-19T10:59:29;97154.69;;;9.64;71.52
25130;BME280;13308;50.860;13.664;2023-04-19T11:01:57;97157.25;;;9.89;77.16
25130;BME280;13308;50.860;13.664;2023-04-19T11:09:31;97139.81;;;10.06;73.68
25130;BME280;13308;50.860;13.664;2023-04-19T11:12:03;97143.03;;;9.94;73.56
25130;BME280;13308;50.860;13.664;2023-04-19T11:14:31;97141.41;;;10.03;72.18
25130;BME280;13308;50.860;13.664;2023-04-19T11:16:57;97149.44;;;10.68;75.03
25130;BME280;13308;50.860;13.664;2023-04-19T11:19:23;97143.75;;;10.82;72.35
25130;BME280;13308;50.860;13.664;2023-04-19T11:21:48;97148.28;;;10.99;69.87
25130;BME280;13308;50.860;13.664;2023-04-19T11:24:15;97142.41;;;11.27;67.13
25130;BME280;13308;50.860;13.664;2023-04-19T11:26:44;97140.59;;;11.44;66.73
25130;BME280;13308;50.860;13.664;2023-04-19T11:29:10;97132.94;;;12.31;62.32
25130;BME280;13308;50.860;13.664;2023-04-19T11:31:36;97134.19;;;13.11;70.40
25130;BME280;13308;50.860;13.664;2023-04-19T11:34:02;97132.19;;;13.67;63.01
25130;BME280;13308;50.860;13.664;2023-04-19T11:36:27;97135.34;;;13.49;57.77
25130;BME280;13308;50.860;13.664;2023-04-19T11:38:53;97130.28;;;13.28;61.79
25130;BME280;13308;50.860;13.664;2023-04-19T11:41:18;97143.88;;;12.80;64.33
25130;BME280;13308;50.860;13.664;2023-04-19T11:43:44;97139.50;;;12.17;61.94
25130;BME280;13308;50.860;13.664;2023-04-19T11:46:12;97141.25;;;12.08;60.97
25130;BME280;13308;50.860;13.664;2023-04-19T11:48:57;97135.34;;;12.71;62.10
25130;BME280;13308;50.860;13.664;2023-04-19T11:51:22;97128.56;;;12.95;57.11
25130;BME280;13308;50.860;13.664;2023-04-19T11:53:48;97128.44;;;13.73;62.16
25130;BME280;13308;50.860;13.664;2023-04-19T11:56:14;97129.97;;;14.10;58.63
25130;BME280;13308;50.860;13.664;2023-04-19T11:58:44;97133.50;;;14.58;59.80
25130;BME280;13308;50.860;13.664;2023-04-19T12:01:14;97126.84;;;14.84;57.37
25130;BME280;13308;50.860;13.664;2023-04-19T12:03:48;97131.97;;;14.25;54.92
25130;BME280;13308;50.860;13.664;2023-04-19T12:06:23;97128.78;;;13.59;55.90
25130;BME280;13308;50.860;13.664;2023-04-19T12:08:50;97125.69;;;12.60;59.15
25130;BME280;13308;50.860;13.664;2023-04-19T12:11:18;97127.69;;;12.13;58.52
25130;BME280;13308;50.860;13.664;2023-04-19T12:13:44;97130.56;;;11.83;59.36
25130;BME280;13308;50.860;13.664;2023-04-19T12:16:10;97124.06;;;11.70;62.76
25130;BME280;13308;50.860;13.664;2023-04-19T12:18:46;97114.81;;;11.54;61.37
25130;BME280;13308;50.860;13.664;2023-04-19T12:21:30;97117.22;;;11.52;62.67
25130;BME280;13308;50.860;13.664;2023-04-19T12:24:00;97116.91;;;11.46;60.00
25130;BME280;13308;50.860;13.664;2023-04-19T12:26:26;97113.16;;;11.33;62.23
25130;BME280;13308;50.860;13.664;2023-04-19T12:28:53;97110.19;;;11.17;62.00
25130;BME280;13308;50.860;13.664;2023-04-19T12:31:19;97105.53;;;11.14;63.01
25130;BME280;13308;50.860;13.664;2023-04-19T12:33:45;97103.97;;;11.13;68.37
25130;BME280;13308;50.860;13.664;2023-04-19T12:36:10;97092.63;;;11.04;67.02
25130;BME280;13308;50.860;13.664;2023-04-19T12:38:35;97105.63;;;11.07;67.60
25130;BME280;13308;50.860;13.664;2023-04-19T12:41:01;97108.03;;;11.02;66.26
25130;BME280;13308;50.860;13.664;2023-04-19T12:43:27;97101.16;;;10.87;68.88
25130;BME280;13308;50.860;13.664;2023-04-19T12:45:54;97095.59;;;10.90;70.08
25130;BME280;13308;50.860;13.664;2023-04-19T12:48:19;97096.34;;;10.91;68.85
25130;BME280;13308;50.860;13.664;2023-04-19T12:50:45;97091.25;;;11.19;70.29
25130;BME280;13308;50.860;13.664;2023-04-19T12:53:10;97101.78;;;11.28;66.63
25130;BME280;13308;50.860;13.664;2023-04-19T12:55:35;97099.31;;;11.63;65.69
25130;BME280;13308;50.860;13.664;2023-04-19T12:58:01;97091.09;;;11.56;66.03
25130;BME280;13308;50.860;13.664;2023-04-19T13:00:26;97093.78;;;11.63;65.62
25130;BME280;13308;50.860;13.664;2023-04-19T13:02:51;97090.75;;;11.54;61.62
25130;BME280;13308;50.860;13.664;2023-04-19T13:05:17;97082.50;;;11.24;62.91
25130;BME280;13308;50.860;13.664;2023-04-19T13:07:42;97082.91;;;10.96;65.18
25130;BME280;13308;50.860;13.664;2023-04-19T13:10:09;97085.59;;;10.70;67.28
25130;BME280;13308;50.860;13.664;2023-04-19T13:12:35;97091.97;;;10.63;65.21
25130;BME280;13308;50.860;13.664;2023-04-19T13:15:00;97083.34;;;10.61;66.46
25130;BME280;13308;50.860;13.664;2023-04-19T13:17:26;97080.56;;;10.61;65.03
25130;BME280;13308;50.860;13.664;2023-04-19T13:19:51;97088.50;;;10.59;69.25
25130;BME280;13308;50.860;13.664;2023-04-19T13:22:16;97079.56;;;10.48;70.13
25130;BME280;13308;50.860;13.664;2023-04-19T13:24:42;97081.06;;;10.53;69.86
25130;BME280;13308;50.860;13.664;2023-04-19T13:27:07;97078.75;;;10.48;69.56
25130;BME280;13308;50.860;13.664;2023-04-19T13:29:32;97070.88;;;10.46;71.43
25130;BME280;13308;50.860;13.664;2023-04-19T13:31:58;97069.72;;;10.47;68.94
25130;BME280;13308;50.860;13.664;2023-04-19T13:34:23;97072.25;;;10.31;70.43
25130;BME280;13308;50.860;13.664;2023-04-19T13:36:48;97063.25;;;10.24;69.81
25130;BME280;13308;50.860;13.664;2023-04-19T13:39:14;97055.47;;;10.15;71.41
25130;BME280;13308;50.860;13.664;2023-04-19T13:41:39;97053.47;;;10.19;71.91
25130;BME280;13308;50.860;13.664;2023-04-19T13:44:05;97044.16;;;10.06;72.95
25130;BME280;13308;50.860;13.664;2023-04-19T13:46:30;97041.38;;;10.10;71.38
25130;BME280;13308;50.860;13.664;2023-04-19T13:48:56;97048.19;;;10.35;73.31
25130;BME280;13308;50.860;13.664;2023-04-19T13:51:22;97034.69;;;11.04;71.67
25130;BME280;13308;50.860;13.664;2023-04-19T13:53:47;97039.84;;;12.63;65.09
25130;BME280;13308;50.860;13.664;2023-04-19T13:56:12;97052.03;;;14.49;60.13
25130;BME280;13308;50.860;13.664;2023-04-19T13:58:39;97049.63;;;15.70;57.10
25130;BME280;13308;50.860;13.664;2023-04-19T14:01:04;97050.22;;;16.58;52.98
25130;BME280;13308;50.860;13.664;2023-04-19T14:03:30;97039.59;;;16.44;54.91
25130;BME280;13308;50.860;13.664;2023-04-19T14:05:55;97043.16;;;15.86;54.87
25130;BME280;13308;50.860;13.664;2023-04-19T14:08:20;97027.22;;;15.11;54.45
25130;BME280;13308;50.860;13.664;2023-04-19T14:10:46;97028.28;;;14.19;57.66
25130;BME280;13308;50.860;13.664;2023-04-19T14:13:11;97031.06;;;13.55;58.30
25130;BME280;13308;50.860;13.664;2023-04-19T14:15:36;97025.59;;;13.20;59.73
25130;BME280;13308;50.860;13.664;2023-04-19T14:18:02;97013.81;;;12.61;62.46
25130;BME280;13308;50.860;13.664;2023-04-19T14:20:27;97012.44;;;12.49;62.95
25130;BME280;13308;50.860;13.664;2023-04-19T14:22:52;97006.75;;;12.17;65.56
25130;BME280;13308;50.860;13.664;2023-04-19T14:25:20;97028.81;;;11.78;66.64
25130;BME280;13308;50.860;13.664;2023-04-19T14:27:45;97040.84;;;10.85;77.48
25130;BME280;13308;50.860;13.664;2023-04-19T14:30:11;97023.72;;;10.04;82.95
25130;BME280;13308;50.860;13.664;2023-04-19T14:32:36;97013.72;;;9.32;88.93
25130;BME280;13308;50.860;13.664;2023-04-19T14:35:02;97007.63;;;9.07;90.43
25130;BME280;13308;50.860;13.664;2023-04-19T14:37:27;97013.31;;;8.76;91.29
25130;BME280;13308;50.860;13.664;2023-04-19T14:39:53;97020.47;;;8.59;95.65
25130;BME280;13308;50.860;13.664;2023-04-19T14:42:19;97017.06;;;8.35;94.80
25130;BME280;13308;50.860;13.664;2023-04-19T14:44:44;97023.78;;;8.13;97.88
25130;BME280;13308;50.860;13.664;2023-04-19T14:47:10;97024.63;;;7.89;100.00
25130;BME280;13308;50.860;13.664;2023-04-19T14:49:36;97034.84;;;7.92;100.00
25130;BME280;13308;50.860;13.664;2023-04-19T14:52:02;97058.38;;;7.65;100.00
25130;BME280;13308;50.860;13.664;2023-04-19T14:54:28;97045.06;;;7.46;100.00
25130;BME280;13308;50.860;13.664;2023-04-19T14:56:53;97042.72;;;7.30;100.00
25130;BME280;13308;50.860;13.664;2023-04-19T14:59:18;97045.84;;;7.15;100.00
25130;BME280;13308;50.860;13.664;2023-04-19T15:01:44;97050.13;;;6.98;100.00
25130;BME280;13308;50.860;13.664;2023-04-19T15:04:09;97055.19;;;6.86;100.00
25130;BME280;13308;50.860;13.664;2023-04-19T15:06:34;97048.91;;;6.78;100.00
25130;BME280;13308;50.860;13.664;2023-04-19T15:09:00;97049.66;;;6.65;100.00
25130;BME280;13308;50.860;13.664;2023-04-19T15:11:26;97047.34;;;6.74;100.00
25130;BME280;13308;50.860;13.664;2023-04-19T15:13:51;97046.53;;;6.70;100.00
25130;BME280;13308;50.860;13.664;2023-04-19T15:16:16;97038.69;;;6.65;100.00
25130;BME280;13308;50.860;13.664;2023-04-19T15:18:41;97040.22;;;6.59;100.00
25130;BME280;13308;50.860;13.664;2023-04-19T15:21:07;97041.84;;;6.67;100.00
25130;BME280;13308;50.860;13.664;2023-04-19T15:23:32;97039.50;;;6.72;100.00
25130;BME280;13308;50.860;13.664;2023-04-19T15:25:57;97037.13;;;6.71;100.00
25130;BME280;13308;50.860;13.664;2023-04-19T15:28:23;97045.00;;;6.76;100.00
25130;BME280;13308;50.860;13.664;2023-04-19T15:30:59;97029.72;;;6.78;100.00
25130;BME280;13308;50.860;13.664;2023-04-19T15:33:25;97035.22;;;6.78;100.00
25130;BME280;13308;50.860;13.664;2023-04-19T15:35:51;97033.66;;;6.77;100.00
25130;BME280;13308;50.860;13.664;2023-04-19T15:38:17;97041.47;;;6.79;100.00
25130;BME280;13308;50.860;13.664;2023-04-19T15:40:42;97036.00;;;6.79;100.00
25130;BME280;13308;50.860;13.664;2023-04-19T15:43:08;97032.84;;;6.70;100.00
25130;BME280;13308;50.860;13.664;2023-04-19T15:45:33;97029.28;;;6.66;100.00
25130;BME280;13308;50.860;13.664;2023-04-19T15:47:58;97038.31;;;6.63;100.00
25130;BME280;13308;50.860;13.664;2023-04-19T15:50:24;97037.09;;;6.50;100.00
25130;BME280;13308;50.860;13.664;2023-04-19T15:52:49;97042.53;;;6.43;100.00
25130;BME280;13308;50.860;13.664;2023-04-19T15:55:15;97046.78;;;6.30;100.00
25130;BME280;13308;50.860;13.664;2023-04-19T15:57:40;97050.66;;;6.22;100.00
25130;BME280;13308;50.860;13.664;2023-04-19T16:00:06;97054.88;;;6.02;100.00
25130;BME280;13308;50.860;13.664;2023-04-19T16:02:37;97052.50;;;5.97;100.00
25130;BME280;13308;50.860;13.664;2023-04-19T16:05:03;97051.25;;;5.87;100.00
25130;BME280;13308;50.860;13.664;2023-04-19T16:07:28;97052.38;;;5.83;100.00
25130;BME280;13308;50.860;13.664;2023-04-19T16:09:53;97049.53;;;5.69;100.00
25130;BME280;13308;50.860;13.664;2023-04-19T16:12:19;97057.78;;;5.76;100.00
25130;BME280;13308;50.860;13.664;2023-04-19T16:14:44;97062.50;;;5.79;100.00
25130;BME280;13308;50.860;13.664;2023-04-19T16:17:09;97042.63;;;5.82;100.00
25130;BME280;13308;50.860;13.664;2023-04-19T16:19:35;97049.69;;;5.86;100.00
25130;BME280;13308;50.860;13.664;2023-04-19T16:22:00;97039.91;;;5.89;100.00
25130;BME280;13308;50.860;13.664;2023-04-19T16:24:29;97043.84;;;5.95;100.00
25130;BME280;13308;50.860;13.664;2023-04-19T16:26:55;97042.66;;;5.89;100.00
25130;BME280;13308;50.860;13.664;2023-04-19T16:29:22;97040.72;;;5.93;100.00
25130;BME280;13308;50.860;13.664;2023-04-19T16:31:47;97036.06;;;5.93;100.00
25130;BME280;13308;50.860;13.664;2023-04-19T16:34:12;97031.34;;;5.97;100.00
25130;BME280;13308;50.860;13.664;2023-04-19T16:36:38;97036.06;;;5.93;100.00
25130;BME280;13308;50.860;13.664;2023-04-19T16:39:04;97032.91;;;5.91;100.00
25130;BME280;13308;50.860;13.664;2023-04-19T16:41:29;97038.38;;;5.91;100.00
25130;BME280;13308;50.860;13.664;2023-04-19T16:43:55;97025.84;;;5.90;100.00
25130;BME280;13308;50.860;13.664;2023-04-19T16:46:20;97033.66;;;5.85;100.00
25130;BME280;13308;50.860;13.664;2023-04-19T16:48:45;97027.41;;;5.91;100.00
25130;BME280;13308;50.860;13.664;2023-04-19T16:51:11;97028.94;;;5.82;100.00
25130;BME280;13308;50.860;13.664;2023-04-19T16:53:36;97027.28;;;5.74;100.00
25130;BME280;13308;50.860;13.664;2023-04-19T16:56:01;97024.94;;;5.76;100.00
25130;BME280;13308;50.860;13.664;2023-04-19T16:58:28;97016.31;;;5.67;100.00
25130;BME280;13308;50.860;13.664;2023-04-19T17:00:53;97020.97;;;5.63;100.00
25130;BME280;13308;50.860;13.664;2023-04-19T17:03:18;97012.75;;;5.59;100.00
25130;BME280;13308;50.860;13.664;2023-04-19T17:05:44;97015.09;;;5.61;100.00
25130;BME280;13308;50.860;13.664;2023-04-19T17:08:09;97013.53;;;5.60;100.00
25130;BME280;13308;50.860;13.664;2023-04-19T17:10:36;97009.97;;;5.56;100.00
25130;BME280;13308;50.860;13.664;2023-04-19T17:13:01;97005.69;;;5.55;100.00
25130;BME280;13308;50.860;13.664;2023-04-19T17:15:26;97002.94;;;5.51;100.00
25130;BME280;13308;50.860;13.664;2023-04-19T17:17:52;97004.88;;;5.51;100.00
25130;BME280;13308;50.860;13.664;2023-04-19T17:20:17;97002.94;;;5.55;100.00
25130;BME280;13308;50.860;13.664;2023-04-19T17:22:42;97002.16;;;5.54;100.00